Hocking — AEPB — position and weather

sailwx.info

Track history (hours):
 
Tides and Currents Weather Stations Pressure Air Temp Water Temp Dewpoint Dewpoint Depression Visibility Wind Speed Wind Dir Waves Ship Positions

Hocking

Last reported at 2018-Jul-19 18:28 UTC. Time now 2018-Jul-23 07:27 UTC.
Position N 40°41' W 074°04'.

Length 21 m; draft 1.8 m.

Type: Other ship. MMSI: 366999414.

Date/timePositionNaut miles runAvg speedWind from/ knotsBaromVisibWave heightAir tempDewpointWater temp
2018-Jul-19 18:28N 40°41' W 074°04'3 7.2
2018-Jul-19 18:00N 40°38' W 074°04'3 6.6
2018-Jul-19 17:30N 40°41' W 074°02'3 6.2
2018-Jul-19 16:59N 40°44' W 074°02'0 0.0
2018-Jul-19 16:30N 40°44' W 074°02'0 0.9
2018-Jul-19 16:00N 40°44' W 074°01'4 8.6
2018-Jul-19 15:30N 40°39' W 074°02'7 2.6
2018-Jul-19 12:53N 40°33' W 074°04'3 8.0
2018-Jul-19 12:30N 40°36' W 074°03'4 8.5
2018-Jul-19 12:00N 40°40' W 074°04'1 0.0
2018-Jul-17 15:23N 40°41' W 074°04'0 0.0
2018-Jul-17 15:00N 40°41' W 074°04'0 0.2
2018-Jul-17 14:30N 40°41' W 074°04'3 6.6
2018-Jul-17 14:00N 40°38' W 074°03'3 6.8
2018-Jul-17 13:30N 40°41' W 074°04'  
2018-Jul-13 16:15N 40°41' W 074°04'1 4.3
2018-Jul-13 16:00N 40°40' W 074°04'0 1.0
2018-Jul-13 15:30N 40°40' W 074°04'1 1.5
2018-Jul-13 15:00N 40°41' W 074°04'0 0.4
2018-Jul-13 14:00N 40°41' W 074°04'3 0.1
2018-Jul-11 15:29N 40°40' W 074°01'4 7.7
2018-Jul-11 15:00N 40°36' W 074°02'4 7.7
2018-Jul-11 14:30N 40°40' W 074°03'3 5.4
2018-Jul-11 14:00N 40°43' W 074°01'1 1.9
2018-Jul-11 13:30N 40°42' W 074°00'4 4.5
2018-Jul-11 12:39N 40°45' W 073°57'1 8.1
2018-Jul-11 12:30N 40°44' W 073°58'4 8.1
2018-Jul-11 12:00N 40°41' W 074°01'2 0.1
2018-Jul-10 18:45N 40°41' W 074°04'1 4.7
2018-Jul-10 18:30N 40°40' W 074°04'2 3.9
2018-Jul-10 18:00N 40°41' W 074°02'510.1
2018-Jul-10 17:30N 40°46' W 074°01'1 0.3
2018-Jul-10 13:29N 40°47' W 073°60'5 9.6
2018-Jul-10 13:00N 40°43' W 074°02'  
Track history (hours):
 
Tides and Currents Weather Stations Pressure Air Temp Water Temp Dewpoint Dewpoint Depression Visibility Wind Speed Wind Dir Waves Ship Positions

Hocking

Last reported at 2018-Jul-19 18:28 UTC. Time now 2018-Jul-23 07:27 UTC.
Position N 40°41' W 074°04'.

Length 21 m; draft 1.8 m.

Type: Other ship. MMSI: 366999414.

Date/timePositionNaut miles runAvg speedWind from/ knotsBaromVisibWave heightAir tempDewpointWater temp
2018-Jul-19 18:28N 40°41' W 074°04'3 7.2
2018-Jul-19 18:00N 40°38' W 074°04'3 6.6
2018-Jul-19 17:30N 40°41' W 074°02'3 6.2
2018-Jul-19 16:59N 40°44' W 074°02'0 0.0
2018-Jul-19 16:30N 40°44' W 074°02'0 0.9
2018-Jul-19 16:00N 40°44' W 074°01'4 8.6
2018-Jul-19 15:30N 40°39' W 074°02'7 2.6
2018-Jul-19 12:53N 40°33' W 074°04'3 8.0
2018-Jul-19 12:30N 40°36' W 074°03'4 8.5
2018-Jul-19 12:00N 40°40' W 074°04'1 0.0
2018-Jul-17 15:23N 40°41' W 074°04'0 0.0
2018-Jul-17 15:00N 40°41' W 074°04'0 0.2
2018-Jul-17 14:30N 40°41' W 074°04'3 6.6
2018-Jul-17 14:00N 40°38' W 074°03'3 6.8
2018-Jul-17 13:30N 40°41' W 074°04'  
2018-Jul-13 16:15N 40°41' W 074°04'1 4.3
2018-Jul-13 16:00N 40°40' W 074°04'0 1.0
2018-Jul-13 15:30N 40°40' W 074°04'1 1.5
2018-Jul-13 15:00N 40°41' W 074°04'0 0.4
2018-Jul-13 14:00N 40°41' W 074°04'3 0.1
2018-Jul-11 15:29N 40°40' W 074°01'4 7.7
2018-Jul-11 15:00N 40°36' W 074°02'4 7.7
2018-Jul-11 14:30N 40°40' W 074°03'3 5.4
2018-Jul-11 14:00N 40°43' W 074°01'1 1.9
2018-Jul-11 13:30N 40°42' W 074°00'4 4.5
2018-Jul-11 12:39N 40°45' W 073°57'1 8.1
2018-Jul-11 12:30N 40°44' W 073°58'4 8.1
2018-Jul-11 12:00N 40°41' W 074°01'2 0.1
2018-Jul-10 18:45N 40°41' W 074°04'1 4.7
2018-Jul-10 18:30N 40°40' W 074°04'2 3.9
2018-Jul-10 18:00N 40°41' W 074°02'510.1
2018-Jul-10 17:30N 40°46' W 074°01'1 0.3
2018-Jul-10 13:29N 40°47' W 073°60'5 9.6
2018-Jul-10 13:00N 40°43' W 074°02'  

Dump ship's entire track history